Time;durP1;ratioP1;P1;durP2;ratioP2;P2;SDS_P1;SDS_P2;PMS_P1;PMS_P2;Temp;Humidity;BMP_temperature;BMP_pressure;BME280_temperature;BME280_humidity;BME280_pressure;Samples;Min_cycle;Max_cycle;Signal;HPM_P1;HPM_P2
2021/10/09 00:01:04;;;;;;;36.83;19.90;;;;;;;;;;5052243;28;20024;-88
2021/10/09 00:03:29;;;;;;;54.72;24.38;;;;;;;;;;5051320;28;20138;-87
2021/10/09 00:05:55;;;;;;;30.83;14.25;;;;;;;;;;5052051;28;20025;-89
2021/10/09 00:08:20;;;;;;;25.65;13.80;;;;;;;;;;5051529;28;20020;-89
2021/10/09 00:10:46;;;;;;;39.42;15.43;;;;;;;;;;5052337;28;20430;-90
2021/10/09 00:13:11;;;;;;;33.10;15.20;;;;;;;;;;5049980;28;20020;-89
2021/10/09 00:15:36;;;;;;;36.20;17.77;;;;;;;;;;5051870;28;20055;-89
2021/10/09 00:18:02;;;;;;;34.05;16.67;;;;;;;;;;5051966;28;20460;-89
2021/10/09 00:20:28;;;;;;;34.25;17.73;;;;;;;;;;5086193;22;20094;-70
2021/10/09 00:22:53;;;;;;;35.17;17.15;;;;;;;;;;5066387;28;20560;-70
2021/10/09 00:25:19;;;;;;;32.22;17.60;;;;;;;;;;5071076;28;20111;-69
2021/10/09 00:27:45;;;;;;;34.25;17.10;;;;;;;;;;5070649;28;20085;-69
2021/10/09 00:30:10;;;;;;;34.65;16.83;;;;;;;;;;5070785;28;20469;-70
2021/10/09 00:32:35;;;;;;;34.83;16.52;;;;;;;;;;5070864;28;20414;-70
2021/10/09 00:35:00;;;;;;;33.63;15.93;;;;;;;;;;5076595;22;20055;-63
2021/10/09 00:37:25;;;;;;;29.77;16.45;;;;;;;;;;5070210;28;20338;-65
2021/10/09 00:39:51;;;;;;;32.00;16.75;;;;;;;;;;5070943;28;20069;-64
2021/10/09 00:42:16;;;;;;;34.55;16.77;;;;;;;;;;5069956;28;20073;-66
2021/10/09 00:44:41;;;;;;;35.35;18.02;;;;;;;;;;5070828;28;20033;-65
2021/10/09 00:47:06;;;;;;;37.70;18.50;;;;;;;;;;5070746;28;20024;-65
2021/10/09 00:49:32;;;;;;;28.65;17.67;;;;;;;;;;5070839;28;20030;-64
2021/10/09 00:51:58;;;;;;;34.67;17.13;;;;;;;;;;5069450;28;20021;-64
2021/10/09 00:54:25;;;;;;;34.75;17.30;;;;;;;;;;5070651;28;20055;-64
2021/10/09 00:56:51;;;;;;;30.02;16.08;;;;;;;;;;5070292;28;20024;-65
2021/10/09 00:59:17;;;;;;;37.53;16.88;;;;;;;;;;5069907;28;20009;-64
2021/10/09 01:01:42;;;;;;;34.78;17.02;;;;;;;;;;5070723;28;20373;-64
2021/10/09 01:04:08;;;;;;;36.35;17.17;;;;;;;;;;5069918;28;20047;-64
2021/10/09 01:06:33;;;;;;;35.55;17.92;;;;;;;;;;5066029;28;20111;-65
2021/10/09 01:08:59;;;;;;;39.53;18.35;;;;;;;;;;5056537;28;20031;-64
2021/10/09 01:11:24;;;;;;;40.70;19.30;;;;;;;;;;5061566;28;20445;-66
2021/10/09 01:13:49;;;;;;;36.20;19.37;;;;;;;;;;5070160;28;20145;-64
2021/10/09 01:16:22;;;;;;;42.15;20.23;;;;;;;;;;5069746;28;20616;-66
2021/10/09 01:18:52;;;;;;;37.63;19.77;;;;;;;;;;5070309;28;20447;-64
2021/10/09 01:21:17;;;;;;;38.25;19.90;;;;;;;;;;5069901;28;20497;-64
2021/10/09 01:23:42;;;;;;;46.55;21.88;;;;;;;;;;5070133;28;20073;-64
2021/10/09 01:26:10;;;;;;;47.97;21.70;;;;;;;;;;5069451;28;20396;-66
2021/10/09 01:28:39;;;;;;;40.95;22.08;;;;;;;;;;5070167;28;20025;-64
2021/10/09 01:31:05;;;;;;;43.92;21.30;;;;;;;;;;5070418;28;20020;-64
2021/10/09 01:33:30;;;;;;;39.30;20.98;;;;;;;;;;5069704;28;20032;-65
2021/10/09 01:35:56;;;;;;;41.55;20.92;;;;;;;;;;5070300;28;20028;-64
2021/10/09 01:38:22;;;;;;;43.25;20.52;;;;;;;;;;5069854;28;20025;-64
2021/10/09 01:40:47;;;;;;;36.60;19.85;;;;;;;;;;5069943;28;20012;-64
2021/10/09 01:43:13;;;;;;;49.17;21.25;;;;;;;;;;5069585;28;20078;-65
2021/10/09 01:45:42;;;;;;;42.03;18.75;;;;;;;;;;5070135;28;20031;-64
2021/10/09 01:48:07;;;;;;;39.50;19.55;;;;;;;;;;5073533;28;20035;-64
2021/10/09 01:50:32;;;;;;;37.28;18.77;;;;;;;;;;5074187;28;20028;-66
2021/10/09 01:52:57;;;;;;;34.15;18.50;;;;;;;;;;5073347;28;20107;-64
2021/10/09 01:55:23;;;;;;;41.67;18.20;;;;;;;;;;5073467;28;20036;-65
2021/10/09 01:57:48;;;;;;;40.67;20.23;;;;;;;;;;5073988;28;20039;-64
2021/10/09 02:00:13;;;;;;;44.37;18.93;;;;;;;;;;5073405;28;20266;-65
2021/10/09 02:02:38;;;;;;;41.45;19.92;;;;;;;;;;5073851;28;20255;-66
2021/10/09 02:05:04;;;;;;;42.85;18.90;;;;;;;;;;5073269;28;20028;-64
2021/10/09 02:07:30;;;;;;;40.70;19.38;;;;;;;;;;5074223;28;20035;-66
2021/10/09 02:09:55;;;;;;;40.78;19.58;;;;;;;;;;5056049;28;20082;-65
2021/10/09 02:12:23;;;;;;;44.50;20.42;;;;;;;;;;5073523;28;20021;-63
2021/10/09 02:14:54;;;;;;;45.50;21.70;;;;;;;;;;5073380;28;20450;-64
2021/10/09 02:28:02;;;;;;;43.72;21.73;;;;;;;;;;5073142;28;20027;-65
2021/10/09 02:30:28;;;;;;;42.92;20.90;;;;;;;;;;5073474;28;20431;-64
2021/10/09 02:32:53;;;;;;;45.92;22.60;;;;;;;;;;5055127;28;20028;-64
2021/10/09 02:35:18;;;;;;;42.13;21.55;;;;;;;;;;5072418;28;20029;-66
2021/10/09 02:37:43;;;;;;;51.00;22.98;;;;;;;;;;5073314;28;20029;-64
2021/10/09 02:40:09;;;;;;;45.60;21.20;;;;;;;;;;5072983;28;20381;-66
2021/10/09 02:42:34;;;;;;;41.40;20.40;;;;;;;;;;5072708;28;20320;-66
2021/10/09 02:45:00;;;;;;;45.67;21.83;;;;;;;;;;5073087;28;20060;-66
2021/10/09 02:47:25;;;;;;;49.27;21.20;;;;;;;;;;5073142;28;20024;-66
2021/10/09 02:49:50;;;;;;;40.08;21.95;;;;;;;;;;5073217;28;20258;-66
2021/10/09 02:52:15;;;;;;;49.25;22.50;;;;;;;;;;5072392;28;20032;-65
2021/10/09 02:54:40;;;;;;;46.03;23.37;;;;;;;;;;5072739;28;20032;-67
2021/10/09 02:57:05;;;;;;;49.00;22.07;;;;;;;;;;5072294;28;20344;-66
2021/10/09 02:59:31;;;;;;;56.77;22.83;;;;;;;;;;5073250;28;20261;-66
2021/10/09 03:01:56;;;;;;;50.13;23.20;;;;;;;;;;5073017;28;20287;-66
2021/10/09 03:04:21;;;;;;;49.67;21.58;;;;;;;;;;5072463;28;20269;-64
2021/10/09 03:06:46;;;;;;;45.97;21.70;;;;;;;;;;5072725;28;20013;-66
2021/10/09 03:09:11;;;;;;;49.22;21.98;;;;;;;;;;5072204;28;20032;-65
2021/10/09 03:11:37;;;;;;;49.75;21.98;;;;;;;;;;5072365;28;20107;-66
2021/10/09 03:14:02;;;;;;;38.77;20.30;;;;;;;;;;5072111;28;20407;-66
2021/10/09 03:16:27;;;;;;;49.30;22.20;;;;;;;;;;5072624;28;20346;-66
2021/10/09 03:18:52;;;;;;;44.80;21.80;;;;;;;;;;5072460;28;20092;-66
2021/10/09 03:21:17;;;;;;;47.10;21.75;;;;;;;;;;5071708;28;20665;-66
2021/10/09 03:23:42;;;;;;;47.20;22.08;;;;;;;;;;5071898;28;20017;-66
2021/10/09 03:26:08;;;;;;;38.63;20.47;;;;;;;;;;5072159;28;20029;-65
2021/10/09 03:28:33;;;;;;;58.40;22.40;;;;;;;;;;5072383;28;20277;-67
2021/10/09 03:30:58;;;;;;;43.10;22.80;;;;;;;;;;5072360;28;20267;-64
2021/10/09 03:33:23;;;;;;;45.42;22.70;;;;;;;;;;5071970;28;20251;-67
2021/10/09 03:35:48;;;;;;;50.05;24.02;;;;;;;;;;5071899;28;20540;-64
2021/10/09 03:38:13;;;;;;;47.70;23.52;;;;;;;;;;5071880;28;20050;-66
2021/10/09 03:40:41;;;;;;;44.47;21.83;;;;;;;;;;5071988;28;20012;-65
2021/10/09 03:43:10;;;;;;;43.42;21.70;;;;;;;;;;5071544;28;20488;-67
2021/10/09 03:45:52;;;;;;;47.40;21.92;;;;;;;;;;5072049;28;20107;-65
2021/10/09 03:48:33;;;;;;;47.58;21.75;;;;;;;;;;5071610;28;20028;-65
2021/10/09 03:53:33;;;;;;;48.78;23.13;;;;;;;;;;5071930;28;20109;-65
2021/10/09 03:55:58;;;;;;;47.45;22.48;;;;;;;;;;5071653;28;20071;-66
2021/10/09 03:58:24;;;;;;;43.17;22.13;;;;;;;;;;5071612;28;20043;-66
2021/10/09 04:00:49;;;;;;;51.88;23.20;;;;;;;;;;5071840;28;20020;-66
2021/10/09 04:03:14;;;;;;;52.88;24.77;;;;;;;;;;5070925;28;20020;-65
2021/10/09 04:05:39;;;;;;;66.07;23.90;;;;;;;;;;5071240;28;20047;-64
2021/10/09 04:08:06;;;;;;;48.47;23.05;;;;;;;;;;5066957;28;20266;-65
2021/10/09 04:10:31;;;;;;;47.83;23.92;;;;;;;;;;5051267;28;20212;-66
2021/10/09 04:12:56;;;;;;;55.65;25.00;;;;;;;;;;5051356;28;20096;-66
2021/10/09 04:15:21;;;;;;;59.92;26.35;;;;;;;;;;5051432;28;20462;-66
2021/10/09 04:17:47;;;;;;;47.80;24.40;;;;;;;;;;5055552;28;20399;-65
2021/10/09 04:20:12;;;;;;;49.30;24.38;;;;;;;;;;5070952;28;20021;-64
2021/10/09 04:22:37;;;;;;;66.07;24.83;;;;;;;;;;5071064;28;20008;-65
2021/10/09 04:25:03;;;;;;;52.08;24.23;;;;;;;;;;5071020;28;20062;-64
2021/10/09 04:27:28;;;;;;;48.15;23.83;;;;;;;;;;5071226;28;20437;-65
2021/10/09 04:29:53;;;;;;;46.63;24.45;;;;;;;;;;5071165;28;20016;-65
2021/10/09 04:32:18;;;;;;;47.27;25.03;;;;;;;;;;5070363;28;20024;-66
2021/10/09 04:34:44;;;;;;;55.40;24.33;;;;;;;;;;5070502;28;20370;-66
2021/10/09 04:37:09;;;;;;;53.22;25.48;;;;;;;;;;5070742;28;20255;-66
2021/10/09 04:39:34;;;;;;;51.22;25.10;;;;;;;;;;5070998;28;20016;-66
2021/10/09 04:42:02;;;;;;;53.20;26.02;;;;;;;;;;5070911;28;20426;-66
2021/10/09 04:44:27;;;;;;;50.47;23.80;;;;;;;;;;5070431;28;20063;-65
2021/10/09 04:46:52;;;;;;;52.65;25.05;;;;;;;;;;5070474;28;20052;-66
2021/10/09 04:49:17;;;;;;;53.83;23.52;;;;;;;;;;5070195;28;20032;-65
2021/10/09 04:51:42;;;;;;;52.72;23.85;;;;;;;;;;5070835;28;20032;-65
2021/10/09 04:54:08;;;;;;;58.17;23.73;;;;;;;;;;5070142;28;20025;-66
2021/10/09 04:56:33;;;;;;;43.45;22.27;;;;;;;;;;5070989;28;20027;-63
2021/10/09 04:58:58;;;;;;;52.72;23.45;;;;;;;;;;5070972;28;20023;-65
2021/10/09 05:01:24;;;;;;;55.85;25.08;;;;;;;;;;5070306;28;20024;-65
2021/10/09 05:03:49;;;;;;;48.05;24.45;;;;;;;;;;5069024;28;20028;-65
2021/10/09 05:06:14;;;;;;;46.93;23.37;;;;;;;;;;5070203;28;20550;-65
2021/10/09 05:08:39;;;;;;;61.40;22.43;;;;;;;;;;5070528;28;20262;-65
2021/10/09 05:11:04;;;;;;;44.63;22.45;;;;;;;;;;5070378;28;20653;-64
2021/10/09 05:13:29;;;;;;;58.70;23.80;;;;;;;;;;5070236;28;20056;-64
2021/10/09 05:15:55;;;;;;;54.13;23.92;;;;;;;;;;5070187;28;20407;-64
2021/10/09 05:18:20;;;;;;;54.42;25.77;;;;;;;;;;5070312;28;20037;-65
2021/10/09 05:20:45;;;;;;;54.58;24.35;;;;;;;;;;5070144;28;20090;-65
2021/10/09 05:23:10;;;;;;;51.10;23.95;;;;;;;;;;5069854;28;20104;-65
2021/10/09 05:25:37;;;;;;;54.70;24.55;;;;;;;;;;5069922;28;20029;-66
2021/10/09 05:28:25;;;;;;;56.88;24.90;;;;;;;;;;5070597;28;20017;-65
2021/10/09 05:30:55;;;;;;;54.15;24.38;;;;;;;;;;5069948;28;20090;-65
2021/10/09 05:36:00;;;;;;;64.55;24.75;;;;;;;;;;5070295;28;20051;-64
2021/10/09 05:38:26;;;;;;;54.45;24.80;;;;;;;;;;5070095;28;20020;-64
2021/10/09 05:40:51;;;;;;;50.33;23.77;;;;;;;;;;5070594;28;20070;-65
2021/10/09 05:43:17;;;;;;;54.97;24.52;;;;;;;;;;5070127;28;20330;-64
2021/10/09 05:45:42;;;;;;;61.72;24.13;;;;;;;;;;5069873;28;20025;-64
2021/10/09 05:48:08;;;;;;;51.88;24.33;;;;;;;;;;5069867;28;20435;-64
2021/10/09 05:50:44;;;;;;;53.70;24.75;;;;;;;;;;5070170;28;20054;-64
2021/10/09 05:53:27;;;;;;;52.20;21.67;;;;;;;;;;5069286;28;20366;-64
2021/10/09 05:55:56;;;;;;;49.72;23.77;;;;;;;;;;5069939;28;20438;-64
2021/10/09 05:58:31;;;;;;;48.97;24.40;;;;;;;;;;5069587;28;20437;-64
2021/10/09 07:00:17;;;;;;;36.30;18.80;;;;;;;;;;5053468;28;20083;-66
2021/10/09 07:02:42;;;;;;;37.92;18.33;;;;;;;;;;5069347;28;20017;-66
2021/10/09 07:05:08;;;;;;;38.78;18.27;;;;;;;;;;5072215;28;20029;-66
2021/10/09 07:07:36;;;;;;;32.20;16.67;;;;;;;;;;5072756;28;20469;-66
2021/10/09 07:10:02;;;;;;;32.08;16.40;;;;;;;;;;5067921;28;20033;-64
2021/10/09 07:12:27;;;;;;;29.02;17.15;;;;;;;;;;5062686;28;20017;-64
2021/10/09 07:14:52;;;;;;;28.05;16.65;;;;;;;;;;5056883;28;20346;-66
2021/10/09 07:17:18;;;;;;;36.13;16.60;;;;;;;;;;5072555;28;20012;-65
2021/10/09 07:19:43;;;;;;;29.67;17.57;;;;;;;;;;5072251;28;20671;-65
2021/10/09 07:22:08;;;;;;;32.87;18.20;;;;;;;;;;5071729;28;20544;-65
2021/10/09 07:24:33;;;;;;;25.90;15.70;;;;;;;;;;5072396;28;20297;-64
2021/10/09 07:26:58;;;;;;;28.80;16.97;;;;;;;;;;5072110;28;20408;-66
2021/10/09 07:29:23;;;;;;;24.40;15.60;;;;;;;;;;5072304;28;20266;-64
2021/10/09 07:31:49;;;;;;;30.13;16.35;;;;;;;;;;5069648;28;20349;-65
2021/10/09 07:34:14;;;;;;;27.17;16.65;;;;;;;;;;5071685;28;20028;-64
2021/10/09 07:36:39;;;;;;;35.75;20.77;;;;;;;;;;5071808;28;20454;-64
2021/10/09 07:39:04;;;;;;;34.87;19.33;;;;;;;;;;5071940;28;20039;-64
2021/10/09 07:41:30;;;;;;;40.93;21.33;;;;;;;;;;5072204;28;20254;-64
2021/10/09 07:43:55;;;;;;;35.70;21.35;;;;;;;;;;5070321;28;20355;-66
2021/10/09 07:46:20;;;;;;;34.63;21.33;;;;;;;;;;5072188;28;20392;-67
2021/10/09 07:48:45;;;;;;;41.40;22.50;;;;;;;;;;5071708;28;20251;-66
2021/10/09 07:51:10;;;;;;;39.37;23.53;;;;;;;;;;5071470;28;20267;-67
2021/10/09 07:53:36;;;;;;;41.25;22.65;;;;;;;;;;5071450;28;20666;-67
2021/10/09 07:56:01;;;;;;;39.07;23.47;;;;;;;;;;5071499;28;20040;-66
2021/10/09 07:58:26;;;;;;;44.90;23.43;;;;;;;;;;5071387;28;20259;-66
2021/10/09 08:00:51;;;;;;;42.20;23.90;;;;;;;;;;5071508;28;20070;-67
2021/10/09 08:03:22;;;;;;;41.43;23.27;;;;;;;;;;5070948;28;20300;-66
2021/10/09 08:05:50;;;;;;;41.00;23.55;;;;;;;;;;5051579;28;20259;-66
2021/10/09 08:08:15;;;;;;;42.40;22.35;;;;;;;;;;5051530;28;20106;-66
2021/10/09 08:10:41;;;;;;;45.43;23.10;;;;;;;;;;5051748;28;20055;-66
2021/10/09 08:13:06;;;;;;;37.03;22.93;;;;;;;;;;5055952;28;20469;-66
2021/10/09 08:15:31;;;;;;;40.30;23.03;;;;;;;;;;5071327;28;20286;-64
2021/10/09 08:17:56;;;;;;;33.80;20.83;;;;;;;;;;5070738;28;20259;-65
2021/10/09 08:20:23;;;;;;;39.15;22.45;;;;;;;;;;5071343;28;20747;-65
2021/10/09 08:22:57;;;;;;;35.95;23.50;;;;;;;;;;5071162;28;20016;-65
2021/10/09 08:35:27;;;;;;;36.92;22.52;;;;;;;;;;5071061;28;20406;-66
2021/10/09 08:41:07;;;;;;;40.90;22.38;;;;;;;;;;5070769;28;20028;-66
2021/10/09 08:43:32;;;;;;;34.90;19.50;;;;;;;;;;5070122;28;20024;-66
2021/10/09 08:45:58;;;;;;;38.33;20.73;;;;;;;;;;5070961;28;20079;-66
2021/10/09 08:48:27;;;;;;;48.80;20.65;;;;;;;;;;5070819;28;20726;-66
2021/10/09 08:50:52;;;;;;;29.23;19.48;;;;;;;;;;5070520;28;20051;-66
2021/10/09 08:53:18;;;;;;;40.70;20.70;;;;;;;;;;5070109;28;20469;-65
2021/10/09 08:55:47;;;;;;;39.35;19.25;;;;;;;;;;5070286;28;20291;-66
2021/10/09 08:58:28;;;;;;;29.88;19.08;;;;;;;;;;5070318;28;20020;-66
2021/10/09 09:01:13;;;;;;;33.92;20.88;;;;;;;;;;5069999;28;20027;-67
2021/10/09 09:04:44;;;;;;;26.75;18.35;;;;;;;;;;5070632;28;20484;-66
2021/10/09 09:25:55;;;;;;;34.38;20.48;;;;;;;;;;5070371;28;20035;-66
2021/10/09 09:33:47;;;;;;;42.88;19.23;;;;;;;;;;5062572;28;20024;-66
2021/10/09 09:39:15;;;;;;;34.67;19.00;;;;;;;;;;5007838;28;20096;-65
2021/10/09 09:41:47;;;;;;;34.77;19.50;;;;;;;;;;5008180;28;20439;-65
2021/10/09 09:44:14;;;;;;;31.60;16.73;;;;;;;;;;5028700;28;20272;-65
2021/10/09 09:46:39;;;;;;;31.80;16.73;;;;;;;;;;5055692;28;20024;-65
2021/10/09 09:49:05;;;;;;;37.30;16.90;;;;;;;;;;5070052;28;20017;-64
2021/10/09 09:51:30;;;;;;;33.50;15.65;;;;;;;;;;5070168;28;20023;-65
2021/10/09 09:53:56;;;;;;;26.35;15.27;;;;;;;;;;5069345;28;20078;-66
2021/10/09 09:56:22;;;;;;;24.67;15.88;;;;;;;;;;5070145;28;20032;-65
2021/10/09 09:58:51;;;;;;;28.90;15.00;;;;;;;;;;5070191;28;20017;-65
2021/10/09 10:01:17;;;;;;;29.67;17.30;;;;;;;;;;5070132;28;20388;-67
2021/10/09 10:03:44;;;;;;;38.08;17.35;;;;;;;;;;5069441;28;20024;-66
2021/10/09 10:06:10;;;;;;;37.65;14.40;;;;;;;;;;5070092;28;20382;-67
2021/10/09 10:08:36;;;;;;;23.27;14.25;;;;;;;;;;5072943;28;20040;-67
2021/10/09 10:11:02;;;;;;;27.33;14.98;;;;;;;;;;5073435;28;20040;-67
2021/10/09 10:13:29;;;;;;;31.00;16.55;;;;;;;;;;5073414;28;20110;-67
2021/10/09 10:15:54;;;;;;;28.00;15.40;;;;;;;;;;5073592;28;20024;-67
2021/10/09 10:18:38;;;;;;;25.35;14.57;;;;;;;;;;5073123;28;20020;-67
2021/10/09 10:21:04;;;;;;;30.60;15.10;;;;;;;;;;5072893;28;20103;-67
2021/10/09 10:23:31;;;;;;;33.70;16.27;;;;;;;;;;5073218;28;20579;-67
2021/10/09 10:26:16;;;;;;;27.63;14.38;;;;;;;;;;5073418;28;20300;-67
2021/10/09 10:28:41;;;;;;;27.83;14.75;;;;;;;;;;5073489;28;20435;-67
2021/10/09 10:31:07;;;;;;;29.13;15.63;;;;;;;;;;5073393;28;20081;-67
2021/10/09 10:33:37;;;;;;;25.50;14.40;;;;;;;;;;5072590;28;20329;-67
2021/10/09 10:36:03;;;;;;;28.20;13.57;;;;;;;;;;5072552;28;20283;-67
2021/10/09 10:38:37;;;;;;;31.33;14.85;;;;;;;;;;5073245;28;20525;-67
2021/10/09 10:41:04;;;;;;;24.70;12.50;;;;;;;;;;5073137;28;20074;-66
2021/10/09 10:43:29;;;;;;;24.80;12.13;;;;;;;;;;5072756;28;20039;-67
2021/10/09 10:45:54;;;;;;;29.65;13.35;;;;;;;;;;5072933;28;20051;-67
2021/10/09 10:48:38;;;;;;;26.47;13.17;;;;;;;;;;5073023;28;20094;-66
2021/10/09 10:51:11;;;;;;;33.08;12.88;;;;;;;;;;5072385;28;20278;-65
2021/10/09 10:54:07;;;;;;;22.58;13.48;;;;;;;;;;5072837;28;20024;-65
2021/10/09 10:56:33;;;;;;;26.63;13.32;;;;;;;;;;5069221;28;20112;-64
2021/10/09 10:59:17;;;;;;;26.25;13.80;;;;;;;;;;5072605;28;20019;-65
2021/10/09 11:01:42;;;;;;;29.33;13.52;;;;;;;;;;5072884;28;20052;-65
2021/10/09 11:04:08;;;;;;;23.25;12.35;;;;;;;;;;5071942;28;20056;-66
2021/10/09 11:06:33;;;;;;;20.47;11.57;;;;;;;;;;5072874;28;20039;-66
2021/10/09 11:08:58;;;;;;;21.00;11.13;;;;;;;;;;5072745;28;20393;-65
2021/10/09 11:11:37;;;;;;;19.63;10.83;;;;;;;;;;5072885;28;20021;-66
2021/10/09 11:14:02;;;;;;;19.60;9.10;;;;;;;;;;5072119;28;20757;-65
2021/10/09 11:16:28;;;;;;;21.70;9.00;;;;;;;;;;5072685;28;20020;-66
2021/10/09 11:18:53;;;;;;;17.80;10.20;;;;;;;;;;5071789;28;20027;-66
2021/10/09 11:21:22;;;;;;;24.83;9.60;;;;;;;;;;5071982;28;20024;-65
2021/10/09 11:23:48;;;;;;;17.70;8.70;;;;;;;;;;5071890;28;20092;-67
2021/10/09 11:26:13;;;;;;;23.15;9.23;;;;;;;;;;5072376;28;20467;-67
2021/10/09 11:28:41;;;;;;;19.83;9.50;;;;;;;;;;5072337;28;20157;-66
2021/10/09 11:31:06;;;;;;;13.90;7.95;;;;;;;;;;5072132;28;20320;-66
2021/10/09 11:33:31;;;;;;;15.55;7.25;;;;;;;;;;5071509;28;20032;-66
2021/10/09 11:35:56;;;;;;;13.03;6.53;;;;;;;;;;5071997;28;20037;-67
2021/10/09 11:38:23;;;;;;;19.23;7.25;;;;;;;;;;5072011;28;20149;-66
2021/10/09 11:40:58;;;;;;;14.18;6.55;;;;;;;;;;5071722;28;20086;-67
2021/10/09 11:43:52;;;;;;;12.38;6.40;;;;;;;;;;5071886;28;20111;-67
2021/10/09 11:54:50;;;;;;;16.52;6.70;;;;;;;;;;5071285;28;20031;-67
2021/10/09 11:57:15;;;;;;;16.80;6.72;;;;;;;;;;5072025;28;20024;-65
2021/10/09 11:59:41;;;;;;;17.73;7.00;;;;;;;;;;5071757;28;20021;-67
2021/10/09 12:02:07;;;;;;;13.25;6.50;;;;;;;;;;5070828;28;20021;-66
2021/10/09 12:04:32;;;;;;;19.42;7.03;;;;;;;;;;5071771;28;20344;-66
2021/10/09 12:09:32;;;;;;;12.13;7.22;;;;;;;;;;5071874;28;20037;-66
2021/10/09 12:12:10;;;;;;;12.20;6.57;;;;;;;;;;5070768;28;20542;-66
2021/10/09 12:14:35;;;;;;;19.52;7.20;;;;;;;;;;5071525;28;20028;-66
2021/10/09 12:17:00;;;;;;;21.80;6.75;;;;;;;;;;5070625;28;20047;-66
2021/10/09 12:19:26;;;;;;;15.33;7.30;;;;;;;;;;5071385;28;20111;-66
2021/10/09 12:21:54;;;;;;;10.88;6.15;;;;;;;;;;5059731;28;20040;-66
2021/10/09 12:24:20;;;;;;;15.52;7.43;;;;;;;;;;5050843;28;20100;-66
2021/10/09 12:27:02;;;;;;;16.52;5.75;;;;;;;;;;5051854;28;20016;-66
2021/10/09 12:29:27;;;;;;;13.43;6.47;;;;;;;;;;5069558;28;20016;-65
2021/10/09 12:31:52;;;;;;;15.55;7.32;;;;;;;;;;5070264;28;20020;-65
2021/10/09 12:34:25;;;;;;;12.98;6.80;;;;;;;;;;5071210;28;20044;-66
2021/10/09 12:37:07;;;;;;;16.35;5.95;;;;;;;;;;5071197;28;20052;-67
2021/10/09 12:39:33;;;;;;;13.35;6.97;;;;;;;;;;5070957;28;20020;-67
2021/10/09 12:41:58;;;;;;;9.77;6.47;;;;;;;;;;5070006;28;20024;-65
2021/10/09 12:44:24;;;;;;;15.17;6.50;;;;;;;;;;5070189;28;20358;-66
2021/10/09 12:46:49;;;;;;;13.27;5.70;;;;;;;;;;5070888;28;20251;-65
2021/10/09 12:49:14;;;;;;;13.47;5.60;;;;;;;;;;5071064;28;20247;-65
2021/10/09 12:51:39;;;;;;;19.92;6.68;;;;;;;;;;5070651;28;20262;-67
2021/10/09 12:54:06;;;;;;;15.15;6.45;;;;;;;;;;5070435;28;20078;-67
2021/10/09 12:56:32;;;;;;;10.85;6.20;;;;;;;;;;5069894;28;20028;-67
2021/10/09 12:58:58;;;;;;;16.83;6.13;;;;;;;;;;5070301;28;20023;-67
2021/10/09 13:01:23;;;;;;;16.13;6.55;;;;;;;;;;5070607;28;20017;-67
2021/10/09 13:03:48;;;;;;;15.80;6.47;;;;;;;;;;5070266;28;20012;-65
2021/10/09 13:06:13;;;;;;;11.98;6.20;;;;;;;;;;5070518;28;20265;-66
2021/10/09 13:08:38;;;;;;;15.53;6.40;;;;;;;;;;5070565;28;20025;-66
2021/10/09 13:11:04;;;;;;;17.73;6.95;;;;;;;;;;5066270;28;20639;-66
2021/10/09 13:13:29;;;;;;;12.32;6.32;;;;;;;;;;5057635;28;20381;-66
2021/10/09 13:15:54;;;;;;;11.93;5.77;;;;;;;;;;5061679;28;20044;-67
2021/10/09 13:18:19;;;;;;;12.97;5.23;;;;;;;;;;5050401;28;20248;-66
2021/10/09 13:20:44;;;;;;;13.27;6.20;;;;;;;;;;5052375;28;20021;-66
2021/10/09 13:23:10;;;;;;;9.90;5.77;;;;;;;;;;5070084;28;20661;-66
2021/10/09 13:25:35;;;;;;;16.97;6.73;;;;;;;;;;5069749;28;20392;-66
2021/10/09 13:28:00;;;;;;;15.20;6.18;;;;;;;;;;5050197;28;20470;-66
2021/10/09 13:30:25;;;;;;;13.70;6.20;;;;;;;;;;5050484;28;20021;-67
2021/10/09 13:32:51;;;;;;;11.88;5.95;;;;;;;;;;5049953;28;20017;-64
2021/10/09 13:35:16;;;;;;;13.38;7.00;;;;;;;;;;5063339;28;20483;-67
2021/10/09 13:37:52;;;;;;;12.27;6.28;;;;;;;;;;5064853;28;20013;-65
2021/10/09 13:40:18;;;;;;;14.00;6.47;;;;;;;;;;5050150;28;20044;-68
2021/10/09 13:42:43;;;;;;;12.85;6.57;;;;;;;;;;5064137;28;20468;-67
2021/10/09 13:45:08;;;;;;;13.02;6.47;;;;;;;;;;5074294;28;20055;-67
2021/10/09 13:47:34;;;;;;;19.65;7.45;;;;;;;;;;5073898;28;20052;-66
2021/10/09 13:49:59;;;;;;;19.67;6.97;;;;;;;;;;5073505;28;20484;-65
2021/10/09 13:52:24;;;;;;;12.97;6.93;;;;;;;;;;5073873;28;20025;-65
2021/10/09 13:54:50;;;;;;;12.57;6.30;;;;;;;;;;5074417;28;20309;-65
2021/10/09 13:57:15;;;;;;;12.67;6.67;;;;;;;;;;5074420;28;20305;-65
2021/10/09 13:59:40;;;;;;;12.20;7.03;;;;;;;;;;5074007;28;20304;-65
2021/10/09 14:02:05;;;;;;;13.47;6.13;;;;;;;;;;5073815;28;20070;-66
2021/10/09 14:04:37;;;;;;;12.07;5.60;;;;;;;;;;5072888;28;20033;-65
2021/10/09 14:07:02;;;;;;;11.43;5.57;;;;;;;;;;5074107;28;20246;-65
2021/10/09 14:09:27;;;;;;;14.93;6.15;;;;;;;;;;5073760;28;20016;-67
2021/10/09 14:11:54;;;;;;;14.47;6.63;;;;;;;;;;5073761;28;20024;-66
2021/10/09 14:14:20;;;;;;;14.18;6.10;;;;;;;;;;5073306;28;20251;-67
2021/10/09 14:16:45;;;;;;;11.27;6.50;;;;;;;;;;5072883;28;20035;-67
2021/10/09 14:19:10;;;;;;;20.23;6.82;;;;;;;;;;5072734;28;20030;-67
2021/10/09 14:21:35;;;;;;;17.00;6.30;;;;;;;;;;5073142;28;20031;-67
2021/10/09 14:24:01;;;;;;;19.83;6.50;;;;;;;;;;5072940;28;20334;-67
2021/10/09 14:26:26;;;;;;;13.13;5.80;;;;;;;;;;5073457;28;20265;-67
2021/10/09 14:28:51;;;;;;;13.37;6.27;;;;;;;;;;5073308;28;20255;-67
2021/10/09 14:31:16;;;;;;;13.57;6.10;;;;;;;;;;5073221;28;20300;-64
2021/10/09 14:33:41;;;;;;;13.80;6.18;;;;;;;;;;5072268;28;20275;-67
2021/10/09 14:36:07;;;;;;;11.47;5.40;;;;;;;;;;5073160;28;20454;-64
2021/10/09 14:38:32;;;;;;;11.57;6.63;;;;;;;;;;5073139;28;20283;-67
2021/10/09 14:40:59;;;;;;;11.93;5.27;;;;;;;;;;5073182;28;20255;-65
2021/10/09 14:43:24;;;;;;;13.50;6.03;;;;;;;;;;5072875;28;20312;-67
2021/10/09 14:45:52;;;;;;;15.10;6.17;;;;;;;;;;5069579;28;20025;-65
2021/10/09 14:48:21;;;;;;;11.32;5.57;;;;;;;;;;5073133;28;20269;-64
2021/10/09 14:51:13;;;;;;;13.70;6.05;;;;;;;;;;5072141;28;20488;-65
2021/10/09 15:01:20;;;;;;;17.70;6.10;;;;;;;;;;5072877;28;20028;-64
2021/10/09 15:18:21;;;;;;;15.93;5.90;;;;;;;;;;5073087;28;20081;-67
2021/10/09 15:20:46;;;;;;;14.88;7.35;;;;;;;;;;5072681;28;20107;-67
2021/10/09 15:23:11;;;;;;;13.77;5.75;;;;;;;;;;5071930;28;20091;-67
2021/10/09 15:25:36;;;;;;;12.85;5.65;;;;;;;;;;5071870;28;20029;-67
2021/10/09 15:28:02;;;;;;;18.15;6.25;;;;;;;;;;5072005;28;20020;-67
2021/10/09 15:30:27;;;;;;;18.58;6.60;;;;;;;;;;5072477;28;20035;-67
2021/10/09 15:32:52;;;;;;;14.85;5.90;;;;;;;;;;5072139;28;20081;-66
2021/10/09 15:35:17;;;;;;;16.13;7.30;;;;;;;;;;5071840;28;20417;-67
2021/10/09 15:37:43;;;;;;;14.70;5.87;;;;;;;;;;5071949;28;20255;-66
2021/10/09 15:40:08;;;;;;;14.07;6.88;;;;;;;;;;5072214;28;20422;-66
2021/10/09 15:42:33;;;;;;;11.25;5.65;;;;;;;;;;5071524;28;20016;-65
2021/10/09 15:44:58;;;;;;;19.35;6.82;;;;;;;;;;5071335;28;20035;-65
2021/10/09 15:47:24;;;;;;;14.27;6.63;;;;;;;;;;5070667;28;20515;-67
2021/10/09 15:49:49;;;;;;;11.13;5.97;;;;;;;;;;5062914;28;20263;-67
2021/10/09 15:52:14;;;;;;;18.20;6.13;;;;;;;;;;5068644;28;20328;-67
2021/10/09 15:54:39;;;;;;;13.30;6.73;;;;;;;;;;5070405;28;20032;-67
2021/10/09 15:57:08;;;;;;;13.87;6.40;;;;;;;;;;5070620;28;20324;-67
2021/10/09 15:59:33;;;;;;;12.05;6.10;;;;;;;;;;5071503;28;20746;-67
2021/10/09 16:01:58;;;;;;;13.40;6.82;;;;;;;;;;5070939;28;20025;-66
2021/10/09 16:04:23;;;;;;;13.23;6.17;;;;;;;;;;5070471;28;20033;-66
2021/10/09 16:06:53;;;;;;;8.10;5.70;;;;;;;;;;5070678;28;20285;-67
2021/10/09 16:09:18;;;;;;;14.13;6.47;;;;;;;;;;5071713;28;20266;-67
2021/10/09 16:11:43;;;;;;;12.37;6.70;;;;;;;;;;5070728;28;20366;-65
2021/10/09 16:14:09;;;;;;;20.50;7.00;;;;;;;;;;5071053;28;20335;-67
2021/10/09 16:16:37;;;;;;;13.35;6.70;;;;;;;;;;5068001;28;20644;-65
2021/10/09 16:19:03;;;;;;;17.25;6.93;;;;;;;;;;5070989;28;20025;-66
2021/10/09 16:21:28;;;;;;;10.30;6.13;;;;;;;;;;5061791;28;20025;-66
2021/10/09 16:23:53;;;;;;;19.53;7.30;;;;;;;;;;5056695;28;20054;-66
2021/10/09 16:26:18;;;;;;;15.30;7.10;;;;;;;;;;5070896;28;20408;-66
2021/10/09 16:28:44;;;;;;;19.98;8.80;;;;;;;;;;5071000;28;20735;-65
2021/10/09 16:31:09;;;;;;;26.50;9.75;;;;;;;;;;5071170;28;20416;-65
2021/10/09 16:33:34;;;;;;;18.30;9.40;;;;;;;;;;5061283;28;20560;-65
2021/10/09 16:35:59;;;;;;;23.13;10.45;;;;;;;;;;5066820;28;20388;-66
2021/10/09 16:38:25;;;;;;;24.48;11.30;;;;;;;;;;5070281;28;20023;-66
2021/10/09 16:40:50;;;;;;;22.70;10.80;;;;;;;;;;5070817;28;20023;-66
2021/10/09 16:43:15;;;;;;;22.15;11.52;;;;;;;;;;5070590;28;20589;-66
2021/10/09 16:45:40;;;;;;;21.80;10.80;;;;;;;;;;5070346;28;20059;-65
2021/10/09 16:48:06;;;;;;;21.63;11.30;;;;;;;;;;5070665;28;20020;-65